Portada
METAR-TAF:

METAR-TAF

Aeropuertos :

Aeropuerto Internacional Juan Vicente Gómez

San Antonio del Táchira, Venezuela

latitud: 07-51N, longitud: 072-27W, altitud: 377 m

METAR: falta

Hora: 18:19 (22:19 UTC)

Pronóstico

El informe se hizo hace 6 horas y 19 minutos, a las 16:00 UTC
Pronóstico válido del 20 a las 18 UTC al 21 a las 18 UTC
Viento 2 kt del sureste
Visibilidad 10 km o más
Cielo nuboso a una altura de 1600 ft
Temporalmente
del 20 a las 18 UTC al 20 a las 23 UTC
Viento 4 kt del sur
Visibilidad: 9000 m
Cielo nuboso a una altura de 1600 ft
llovizna

TAF: SVSA 201600Z 2018/2118 14002KT 9999 BKN016 TX31/19Z TN22/08Z TEMPO 2018/2023 18004KT 9000 DZ BKN016

Observaciones y pronósticos meteorológicos de más de 4000 aeropuertos (mensajes METAR y TAF).

Los puntos amarillos y rojos representan las estaciones disponibles.

Ponga el ratón en el punto deseado para ver el nombre de la estación.

Haga clic para ver las observaciones y los pronósticos meteorológicos.

Para cambiar el mapa : haga clic en los botones verdes con una cruz de color negro para hacer un zoom, en el botón verde con un guión para alejar o en las flechas verdes para mapas adyacentes.


METAR-TAF: